首页
METAR-TAF:

METAR-TAF

机场 :

多森, 阿拉巴马州, 美国

纬度: 31-19-17N, 经度: 085-26-59W, 海拔: 122米

当前天气观测

该预报发布于37分钟前的14:53 UTC
风速4节,风向西北
温度 31°C
湿度 75%
气压 1019 hPa
能見度: 16.1公里
天空无云

METAR: KDHN 111453Z 31004KT 10SM CLR 31/26 A3008 RMK AO2 SLP180 T03060256 51008

时间: 10:30 (15:30 UTC)

预报

该预报发布于4小时和10分钟前的11:20 UTC
预报有效从11日的 12点(UTC)到 12日的 12点(UTC)
风速3节,风向多变
能見度: 10公里
多云层高于10000英尺
从 11日的 1900点(UTC)
风速10节,风向西
能見度: 6.4公里
多云层高于3500英尺, 积雨云.
雷暴, 小雨
从 11日的 2300点(UTC)
风速6节,风向西南
能見度: 10公里
多云层高于5000英尺
附近有阵雨
从 12日的 0100点(UTC)
风速5节,风向多变
能見度: 10公里
散云层高于3500英尺

TAF: KDHN 111120Z 1112/1212 VRB03KT P6SM BKN100 FM111900 28010KT 4SM -TSRA BKN035CB FM112300 23006KT P6SM VCSH BKN050 FM120100 VRB05KT P6SM SCT035

超过4000个机场的气象观测和天气预报(METAR&TAF报告)。

可查询的气象台以黄色和红色小点在地图上表示。

将鼠标移到小点上方,可查看气象台名称。

然后点击查看天气观测和预报。

如需切换地图:点击带黑十字的绿色按钮放大地图;点击带横线的绿色按钮缩小地图;或者点击绿色箭头查看邻近地区的地图。


METAR-TAF: